createdAt,value
2022-08-09T00:01:16.609Z,5.93
2022-08-09T00:04:00.406Z,5.82
2022-08-09T00:06:32.474Z,5.80
2022-08-09T00:09:04.036Z,5.80
2022-08-09T00:11:58.441Z,6.07
2022-08-09T00:14:22.074Z,5.45
2022-08-09T00:17:04.316Z,5.90
2022-08-09T00:19:34.071Z,6.53
2022-08-09T00:22:03.487Z,6.12
2022-08-09T00:24:32.596Z,6.55
2022-08-09T00:27:01.457Z,6.55
2022-08-09T00:32:26.793Z,5.90
2022-08-09T00:34:58.613Z,6.30
2022-08-09T00:37:30.187Z,6.70
2022-08-09T00:40:09.206Z,6.07
2022-08-09T00:44:11.856Z,6.33
2022-08-09T00:45:31.162Z,6.07
2022-08-09T00:48:05.607Z,6.00
2022-08-09T00:50:33.525Z,6.90
2022-08-09T00:53:10.445Z,6.00
2022-08-09T00:56:04.193Z,6.40
2022-08-09T00:58:31.660Z,6.15
2022-08-09T01:00:59.312Z,5.70
2022-08-09T01:03:46.797Z,6.25
2022-08-09T01:06:19.115Z,5.97
2022-08-09T01:08:56.103Z,6.28
2022-08-09T01:11:29.512Z,6.78
2022-08-09T01:14:23.647Z,6.10
2022-08-09T01:16:55.604Z,5.95
2022-08-09T01:19:42.716Z,6.65
2022-08-09T01:22:35.413Z,6.30
2022-08-09T01:25:12.593Z,5.80
2022-08-09T01:27:42.023Z,6.13
2022-08-09T01:30:28.520Z,6.17
2022-08-09T01:33:00.321Z,5.90
2022-08-09T01:35:37.914Z,6.60
2022-08-09T01:38:15.849Z,6.18
2022-08-09T01:41:04.984Z,6.13
2022-08-09T01:43:51.693Z,5.90
2022-08-09T01:46:24.566Z,6.23
2022-08-09T01:49:10.835Z,5.27
2022-08-09T01:51:53.056Z,5.67
2022-08-09T01:54:26.192Z,6.27
2022-08-09T01:56:56.775Z,6.27
2022-08-09T01:59:24.570Z,6.27
2022-08-09T02:02:03.148Z,6.43
2022-08-09T02:04:35.632Z,5.87
2022-08-09T02:07:15.557Z,6.33
2022-08-09T02:10:07.801Z,6.57
2022-08-09T02:12:36.015Z,6.75
2022-08-09T02:15:07.636Z,6.25
2022-08-09T02:18:01.498Z,6.20
2022-08-09T02:20:32.913Z,6.23
2022-08-09T02:23:12.177Z,6.43
2022-08-09T02:25:52.755Z,6.90
2022-08-09T02:28:35.430Z,6.43
2022-08-09T02:31:07.681Z,6.10
2022-08-09T02:34:06.543Z,6.23
2022-08-09T02:36:36.178Z,6.27
2022-08-09T02:39:14.620Z,6.23
2022-08-09T02:41:57.944Z,6.77
2022-08-09T02:44:30.024Z,7.22
2022-08-09T02:47:02.380Z,5.82
2022-08-09T02:49:38.857Z,6.70
2022-08-09T02:52:14.717Z,7.13
2022-08-09T02:54:54.734Z,6.90
2022-08-09T02:57:26.916Z,6.07
2022-08-09T03:00:21.526Z,6.80
2022-08-09T03:02:58.613Z,6.30
2022-08-09T03:05:34.340Z,6.10
2022-08-09T03:08:04.874Z,6.53
2022-08-09T03:10:36.226Z,5.78
2022-08-09T03:13:08.586Z,6.62
2022-08-09T03:15:40.390Z,7.00
2022-08-09T03:18:31.122Z,6.55
2022-08-09T03:20:59.659Z,6.20
2022-08-09T03:23:27.156Z,6.20
2022-08-09T03:26:03.477Z,6.18
2022-08-09T03:28:34.059Z,6.23
2022-08-09T03:31:10.226Z,6.43
2022-08-09T03:33:52.970Z,6.63
2022-08-09T03:36:27.764Z,6.80
2022-08-09T03:38:57.201Z,6.23
2022-08-09T03:41:44.805Z,6.20
2022-08-09T03:44:13.345Z,6.12
2022-08-09T03:46:44.546Z,6.40
2022-08-09T03:49:17.499Z,6.00
2022-08-09T03:51:58.261Z,6.83
2022-08-09T03:54:31.293Z,7.00
2022-08-09T03:57:04.220Z,7.07
2022-08-09T03:59:53.568Z,6.23
2022-08-09T04:02:26.574Z,6.40
2022-08-09T04:04:58.649Z,7.00
2022-08-09T04:07:33.790Z,7.13
2022-08-09T04:10:20.387Z,6.00
2022-08-09T04:12:49.754Z,7.90
2022-08-09T04:15:42.611Z,6.13
2022-08-09T04:18:08.032Z,7.17
2022-08-09T04:20:36.718Z,6.53
2022-08-09T04:23:09.915Z,6.93
2022-08-09T04:25:38.583Z,8.63
2022-08-09T04:28:06.518Z,7.07
2022-08-09T04:30:33.895Z,7.27
2022-08-09T04:33:02.083Z,6.87
2022-08-09T04:35:29.593Z,6.30
2022-08-09T04:38:03.536Z,7.20
2022-08-09T04:40:48.451Z,7.00
2022-08-09T04:43:25.205Z,6.63
2022-08-09T04:45:54.400Z,6.37
2022-08-09T04:48:23.851Z,7.32
2022-08-09T04:51:01.143Z,7.28
2022-08-09T04:53:29.183Z,6.37
2022-08-09T04:55:59.887Z,7.85
2022-08-09T04:58:29.086Z,7.45
2022-08-09T05:01:00.250Z,7.07
2022-08-09T05:03:40.859Z,6.97
2022-08-09T05:06:26.880Z,7.22
2022-08-09T05:09:00.713Z,8.13
2022-08-09T05:11:35.361Z,8.05
2022-08-09T05:14:06.151Z,7.12
2022-08-09T05:16:43.440Z,7.30
2022-08-09T05:19:15.144Z,7.37
2022-08-09T05:21:47.333Z,7.53
2022-08-09T05:24:24.836Z,7.97
2022-08-09T05:26:53.452Z,7.40
2022-08-09T05:29:24.140Z,7.45
2022-08-09T05:32:02.484Z,7.32
2022-08-09T05:34:32.589Z,7.78
2022-08-09T05:37:05.979Z,7.32
2022-08-09T05:39:43.602Z,6.57
2022-08-09T05:42:17.509Z,7.95
2022-08-09T05:44:51.067Z,7.00
2022-08-09T05:47:22.928Z,7.25
2022-08-09T05:50:30.611Z,7.18
2022-08-09T05:52:44.525Z,7.47
2022-08-09T05:55:21.810Z,6.45
2022-08-09T05:57:57.446Z,7.37
2022-08-09T06:00:29.563Z,7.53
2022-08-09T06:02:59.641Z,7.72
2022-08-09T06:05:50.637Z,7.60
2022-08-09T06:08:19.695Z,7.50
2022-08-09T06:10:57.028Z,7.80
2022-08-09T06:13:28.363Z,7.65
2022-08-09T06:16:05.317Z,7.97
2022-08-09T06:18:35.383Z,7.28
2022-08-09T06:21:05.700Z,7.37
2022-08-09T06:23:57.491Z,7.30
2022-08-09T06:26:22.779Z,7.35
2022-08-09T06:29:00.368Z,6.07
2022-08-09T06:31:39.431Z,6.87
2022-08-09T06:34:22.655Z,6.32
2022-08-09T06:39:48.299Z,6.25
2022-08-09T06:42:30.632Z,6.55
2022-08-09T06:46:03.350Z,6.87
2022-08-09T06:48:00.496Z,6.90
2022-08-09T06:50:31.121Z,7.75
2022-08-09T06:53:00.991Z,9.75
2022-08-09T06:55:33.893Z,9.48
2022-08-09T06:58:04.475Z,8.27
2022-08-09T07:00:52.719Z,7.90
2022-08-09T07:03:27.796Z,7.55
2022-08-09T07:06:03.788Z,7.00
2022-08-09T07:08:37.053Z,7.03
2022-08-09T07:11:06.947Z,6.50
2022-08-09T07:13:45.248Z,8.05
2022-08-09T07:19:15.727Z,7.57
2022-08-09T07:21:57.699Z,7.10
2022-08-09T07:24:40.043Z,6.12
2022-08-09T07:27:27.024Z,7.15
2022-08-09T07:30:01.347Z,7.25
2022-08-09T07:32:32.355Z,6.93
2022-08-09T07:35:10.073Z,6.35
2022-08-09T07:37:43.542Z,5.82
2022-08-09T07:40:17.468Z,6.95
2022-08-09T07:42:55.543Z,5.55
2022-08-09T07:45:40.344Z,5.97
2022-08-09T07:48:28.498Z,5.30
2022-08-09T07:51:09.041Z,4.30
2022-08-09T07:54:07.390Z,4.75
2022-08-09T07:56:45.170Z,5.05
2022-08-09T07:59:25.667Z,3.90
2022-08-09T08:02:09.335Z,4.53
2022-08-09T08:04:40.047Z,4.18
2022-08-09T08:07:15.448Z,3.75
2022-08-09T08:10:08.560Z,4.00
2022-08-09T08:12:45.133Z,4.03
2022-08-09T08:15:24.020Z,4.25
2022-08-09T08:17:58.598Z,3.60
2022-08-09T08:20:32.280Z,3.53
2022-08-09T08:23:16.853Z,3.37
2022-08-09T08:25:53.964Z,3.60
2022-08-09T08:28:35.871Z,4.00
2022-08-09T08:31:13.789Z,3.40
2022-08-09T08:33:52.605Z,3.53
2022-08-09T08:36:29.725Z,3.72
2022-08-09T08:39:00.188Z,3.90
2022-08-09T08:41:41.799Z,4.35
2022-08-09T08:44:27.353Z,4.22
2022-08-09T08:47:04.886Z,4.07
2022-08-09T08:49:48.358Z,3.70
2022-08-09T08:52:53.033Z,3.10
2022-08-09T08:55:07.521Z,4.12
2022-08-09T08:57:37.628Z,3.97
2022-08-09T09:00:17.049Z,3.42
2022-08-09T09:03:08.823Z,2.90
2022-08-09T09:05:59.987Z,3.05
2022-08-09T09:08:40.402Z,3.67
2022-08-09T09:11:13.660Z,3.22
2022-08-09T09:13:57.274Z,2.80
2022-08-09T09:16:32.208Z,2.05
2022-08-09T09:21:58.284Z,2.58
2022-08-09T09:24:33.031Z,2.97
2022-08-09T09:27:03.353Z,4.43
2022-08-09T09:30:12.133Z,2.78
2022-08-09T09:32:34.918Z,2.75
2022-08-09T09:35:10.578Z,3.25
2022-08-09T09:37:41.650Z,2.90
2022-08-09T09:40:11.526Z,3.05
2022-08-09T09:42:39.649Z,2.87
2022-08-09T09:45:25.539Z,2.58
2022-08-09T09:47:56.684Z,2.72
2022-08-09T09:50:49.637Z,3.72
2022-08-09T09:53:57.500Z,3.15
2022-08-09T09:56:30.921Z,2.53
2022-08-09T09:59:00.116Z,2.78
2022-08-09T10:01:37.359Z,2.45
2022-08-09T10:04:23.111Z,2.03
2022-08-09T10:06:58.794Z,2.42
2022-08-09T10:09:54.860Z,1.90
2022-08-09T10:12:28.335Z,2.12
2022-08-09T10:15:50.670Z,2.17
2022-08-09T10:18:12.036Z,2.22
2022-08-09T10:20:45.082Z,2.10
2022-08-09T10:23:17.244Z,2.22
2022-08-09T10:26:08.020Z,2.33
2022-08-09T10:28:38.838Z,2.50
2022-08-09T10:34:08.337Z,2.20
2022-08-09T10:36:40.230Z,2.60
2022-08-09T10:39:15.523Z,2.05
2022-08-09T10:41:48.328Z,2.25
2022-08-09T10:44:21.696Z,2.33
2022-08-09T10:48:17.314Z,2.62
2022-08-09T10:50:57.071Z,2.85
2022-08-09T10:54:04.974Z,1.87
2022-08-09T10:56:35.773Z,2.00
2022-08-09T10:59:31.313Z,2.35
2022-08-09T11:03:10.824Z,1.95
2022-08-09T11:05:25.105Z,2.20
2022-08-09T11:08:43.579Z,2.22
2022-08-09T11:11:17.862Z,2.58
2022-08-09T11:13:49.787Z,2.72
2022-08-09T11:16:38.166Z,2.45
2022-08-09T11:19:10.525Z,2.85
2022-08-09T11:22:10.827Z,3.10
2022-08-09T11:28:02.855Z,2.58
2022-08-09T11:30:32.975Z,2.78
2022-08-09T11:33:07.903Z,3.12
2022-08-09T11:35:49.683Z,3.05
2022-08-09T11:38:22.067Z,3.00
2022-08-09T11:40:56.575Z,3.12
2022-08-09T11:43:32.238Z,3.12
2022-08-09T11:46:05.829Z,3.03
2022-08-09T11:48:49.070Z,2.70
2022-08-09T11:52:56.979Z,3.17
2022-08-09T11:54:27.951Z,3.08
2022-08-09T11:58:00.823Z,3.08
2022-08-09T12:00:31.031Z,3.10
2022-08-09T12:03:50.271Z,2.97
2022-08-09T12:05:52.256Z,3.10
2022-08-09T12:08:22.663Z,3.10
2022-08-09T12:10:53.773Z,3.10
2022-08-09T12:14:08.035Z,2.95
2022-08-09T12:16:38.247Z,3.05
2022-08-09T12:19:09.480Z,3.08
2022-08-09T12:21:48.484Z,2.95
2022-08-09T12:24:24.363Z,3.22
2022-08-09T12:29:10.493Z,3.47
2022-08-09T12:29:58.615Z,3.05
2022-08-09T12:32:32.882Z,3.77
2022-08-09T12:35:05.624Z,2.90
2022-08-09T12:40:23.350Z,2.90
2022-08-09T12:42:53.976Z,4.60
2022-08-09T12:45:34.649Z,2.85
2022-08-09T12:48:20.401Z,3.25
2022-08-09T12:50:59.362Z,3.12
2022-08-09T12:53:37.211Z,2.87
2022-08-09T12:56:44.282Z,3.30
2022-08-09T12:59:12.153Z,2.97
2022-08-09T13:01:48.823Z,2.65
2022-08-09T13:04:36.319Z,2.87
2022-08-09T13:07:19.383Z,3.08
2022-08-09T13:09:55.345Z,2.87
2022-08-09T13:12:24.222Z,3.28
2022-08-09T13:14:55.075Z,2.62
2022-08-09T13:17:44.374Z,2.97
2022-08-09T13:20:18.902Z,2.78
2022-08-09T13:23:01.762Z,3.70
2022-08-09T13:25:43.569Z,3.12
2022-08-09T13:28:33.807Z,3.47
2022-08-09T13:32:15.468Z,3.55
2022-08-09T13:33:59.140Z,2.97
2022-08-09T13:41:19.119Z,3.70
2022-08-09T13:42:12.080Z,3.30
2022-08-09T13:44:42.797Z,3.10
2022-08-09T13:47:33.377Z,2.85
2022-08-09T13:50:08.676Z,3.40
2022-08-09T13:52:48.281Z,2.72
2022-08-09T13:55:17.554Z,3.50
2022-08-09T13:57:56.033Z,2.62
2022-08-09T14:00:28.319Z,3.20
2022-08-09T14:03:03.864Z,3.00
2022-08-09T14:06:00.033Z,2.92
2022-08-09T14:08:31.740Z,3.08
2022-08-09T14:11:01.435Z,4.12
2022-08-09T14:14:22.045Z,3.20
2022-08-09T14:16:28.219Z,3.40
2022-08-09T14:18:58.419Z,3.30
2022-08-09T14:21:29.575Z,3.37
2022-08-09T14:24:01.256Z,3.40
2022-08-09T14:26:39.162Z,3.25
2022-08-09T14:30:03.891Z,3.00
2022-08-09T14:31:57.480Z,4.43
2022-08-09T14:34:27.191Z,3.70
2022-08-09T14:37:06.758Z,2.92
2022-08-09T14:39:47.173Z,2.97
2022-08-09T14:42:28.746Z,3.62
2022-08-09T14:46:40.279Z,3.50
2022-08-09T14:47:59.379Z,2.72
2022-08-09T14:50:34.212Z,2.92
2022-08-09T14:53:13.006Z,2.85
2022-08-09T14:55:50.274Z,3.05
